Humidity-temperature Sensor

Selected Measurement Type: Air Temperature

 
Air Temperature [°C]     6 entries per hour
Showing data from 2/24/2017 (00:00:00 Z) to 2/23/2017 (00:01:00 Z)
Previous Next [ Day | 3-Days | 7-Days ]
First Last
Prev [ Day | 3-Days | 7-Days ] Next
First Last

Start Time:     :
End Time:     :     
Time (in GMT) :00 :50 :40 :30 :20 :10
Previous Next [ Day | 3-Days | 7-Days ]
First Last
Prev [ Day | 3-Days | 7-Days ] Next
First Last


123 => good data
MM => data is determined as missing
-- => data not received/configured
Back to Top Back to Top
2/24/2017 00:00 to 23:10 27.29 27.32 27.28 27.29 27.17 27.35
2/23/2017 23:00 to 22:10 27.13 27.30 27.20 27.08 27.12 27.10
2/23/2017 22:00 to 21:10 27.13 27.11 27.20 27.15 27.12 27.05
2/23/2017 21:00 to 20:10 27.00 27.17 27.12 27.02 26.96 26.94
2/23/2017 20:00 to 19:10 26.83 26.90 26.97 26.98 26.90 27.00
2/23/2017 19:00 to 18:10 27.02 27.01 26.83 26.89 26.83 26.72
2/23/2017 18:00 to 17:10 26.78 27.27 27.17 27.25 27.11 27.23
2/23/2017 17:00 to 16:10 27.11 27.14 26.79 26.97 26.98 26.93
2/23/2017 16:00 to 15:10 27.05 27.10 27.20 26.69 26.90 26.86
2/23/2017 15:00 to 14:10 26.89 26.78 26.64 26.69 26.69 26.64
2/23/2017 14:00 to 13:10 26.68 26.65 26.60 26.70 26.61 26.68
2/23/2017 13:00 to 12:10 26.53 26.64 26.57 26.71 26.67 26.65
2/23/2017 12:00 to 11:10 26.70 26.77 26.71 26.59 26.78 26.72
2/23/2017 11:00 to 10:10 26.71 26.72 26.81 26.77 26.69 26.73
2/23/2017 10:00 to 9:10 26.77 26.52 26.60 26.71 26.68 26.84
2/23/2017 09:00 to 8:10 26.82 26.84 26.92 26.90 26.99 27.05
2/23/2017 08:00 to 7:10 26.88 26.89 26.99 27.06 27.03 27.06
2/23/2017 07:00 to 6:10 27.02 27.06 27.06 27.10 27.08 27.11
2/23/2017 06:00 to 5:10 27.13 27.17 27.23 27.14 27.20 27.23
2/23/2017 05:00 to 4:10 27.19 27.11 27.19 27.19 27.09 27.18
2/23/2017 04:00 to 3:10 27.20 27.10 27.06 27.05 27.00 27.03
2/23/2017 03:00 to 2:10 27.05 27.04 27.16 27.09 27.09 27.27
2/23/2017 02:00 to 1:10 27.26 27.14 27.34 27.29 27.24 27.15
2/23/2017 01:00 to 0:10 27.18 27.18 27.12 27.08 27.08 27.08